createdAt,value
2018-04-20T00:00:39.660Z,93.70
2018-04-20T00:04:42.194Z,93.40
2018-04-20T00:08:45.534Z,93.30
2018-04-20T00:12:48.066Z,93.20
2018-04-20T00:16:50.658Z,93.40
2018-04-20T00:20:53.198Z,93.90
2018-04-20T00:24:55.780Z,93.80
2018-04-20T00:28:58.308Z,94.10
2018-04-20T00:33:01.956Z,94.20
2018-04-20T00:37:04.505Z,94.40
2018-04-20T00:41:07.152Z,94.20
2018-04-20T00:45:09.723Z,94.00
2018-04-20T00:49:14.076Z,94.00
2018-04-20T00:53:16.723Z,94.00
2018-04-20T00:57:19.273Z,94.00
2018-04-20T01:01:21.818Z,93.60
2018-04-20T01:05:24.395Z,93.70
2018-04-20T01:09:27.771Z,94.00
2018-04-20T01:13:30.418Z,94.50
2018-04-20T01:17:32.985Z,94.60
2018-04-20T01:21:35.816Z,94.80
2018-04-20T01:25:38.341Z,94.80
2018-04-20T01:29:40.906Z,95.70
2018-04-20T01:33:43.446Z,96.20
2018-04-20T01:37:46.303Z,96.20
2018-04-20T01:41:49.865Z,95.50
2018-04-20T01:45:52.408Z,95.90
2018-04-20T01:49:54.961Z,95.80
2018-04-20T01:53:57.834Z,95.30
2018-04-20T01:58:00.375Z,95.20
2018-04-20T02:02:02.952Z,95.60
2018-04-20T02:06:05.639Z,96.00
2018-04-20T02:10:08.293Z,96.20
2018-04-20T02:14:14.792Z,96.00
2018-04-20T02:18:17.367Z,95.70
2018-04-20T02:22:19.875Z,96.30
2018-04-20T02:26:22.445Z,96.60
2018-04-20T02:30:25.735Z,96.10
2018-04-20T02:34:28.597Z,96.00
2018-04-20T02:38:31.132Z,96.20
2018-04-20T02:42:33.706Z,96.00
2018-04-20T02:46:36.248Z,95.30
2018-04-20T02:50:46.303Z,96.10
2018-04-20T02:54:48.838Z,96.10
2018-04-20T02:58:51.413Z,96.60
2018-04-20T03:02:54.885Z,96.90
2018-04-20T03:06:57.453Z,97.20
2018-04-20T03:10:59.988Z,96.50
2018-04-20T03:15:02.573Z,96.50
2018-04-20T03:19:05.121Z,96.10
2018-04-20T03:23:07.688Z,96.10
2018-04-20T03:27:10.231Z,96.10
2018-04-20T03:31:12.888Z,96.10
2018-04-20T03:35:15.433Z,96.60
2018-04-20T03:39:18.004Z,96.70
2018-04-20T03:43:21.493Z,97.00
2018-04-20T03:47:24.906Z,97.60
2018-04-20T03:51:31.492Z,97.60
2018-04-20T03:55:34.152Z,97.40
2018-04-20T03:59:36.695Z,97.40
2018-04-20T04:03:39.264Z,97.70
2018-04-20T04:07:41.809Z,97.50
2018-04-20T04:11:44.745Z,97.90
2018-04-20T04:15:47.262Z,98.30
2018-04-20T04:20:12.575Z,98.60
2018-04-20T04:24:26.806Z,98.90
2018-04-20T04:28:29.479Z,98.30
2018-04-20T04:32:32.030Z,98.00
2018-04-20T04:36:34.604Z,97.80
2018-04-20T04:40:39.854Z,97.90
2018-04-20T04:44:42.427Z,97.90
2018-04-20T04:48:44.964Z,97.70
2018-04-20T04:52:47.821Z,97.60
2018-04-20T04:56:50.392Z,98.00
2018-04-20T05:00:53.078Z,98.10
2018-04-20T05:04:55.627Z,98.10
2018-04-20T05:08:58.943Z,97.50
2018-04-20T05:13:01.512Z,97.50
2018-04-20T05:17:04.063Z,98.10
2018-04-20T05:21:07.343Z,98.20
2018-04-20T05:25:11.811Z,98.20
2018-04-20T05:29:14.331Z,97.30
2018-04-20T05:33:16.879Z,97.40
2018-04-20T05:37:19.386Z,97.30
2018-04-20T05:41:21.935Z,98.00
2018-04-20T05:45:24.446Z,97.60
2018-04-20T05:49:27.715Z,96.20
2018-04-20T05:53:30.246Z,96.50
2018-04-20T05:57:43.900Z,96.70
2018-04-20T06:02:00.126Z,97.10
2018-04-20T06:06:02.967Z,97.40
2018-04-20T06:10:05.479Z,96.90
2018-04-20T06:14:08.019Z,96.70
2018-04-20T06:18:12.504Z,96.40
2018-04-20T06:22:15.053Z,96.60
2018-04-20T06:26:18.530Z,96.60
2018-04-20T06:30:21.071Z,96.60
2018-04-20T06:34:23.588Z,96.50
2018-04-20T06:38:26.219Z,95.90
2018-04-20T06:42:28.743Z,95.10
2018-04-20T06:46:31.278Z,95.40
2018-04-20T06:50:35.711Z,95.00
2018-04-20T06:54:38.346Z,94.80
2018-04-20T06:58:40.970Z,94.60
2018-04-20T07:02:43.511Z,94.50
2018-04-20T07:06:46.023Z,93.40
2018-04-20T07:10:48.565Z,93.40
2018-04-20T07:14:54.434Z,93.20
2018-04-20T07:18:57.369Z,90.90
2018-04-20T07:22:59.882Z,81.40
2018-04-20T07:27:02.527Z,75.20
2018-04-20T07:31:05.143Z,69.70
2018-04-20T07:35:07.688Z,66.10
2018-04-20T07:39:10.211Z,63.00
2018-04-20T07:43:12.759Z,58.40
2018-04-20T07:47:15.275Z,53.10
2018-04-20T07:51:17.842Z,53.80
2018-04-20T07:55:21.148Z,51.80
2018-04-20T07:59:23.703Z,51.70
2018-04-20T08:03:26.218Z,48.50
2018-04-20T08:07:28.762Z,50.80
2018-04-20T08:11:31.279Z,48.80
2018-04-20T08:15:33.824Z,49.10
2018-04-20T08:19:36.342Z,45.70
2018-04-20T08:23:39.183Z,44.70
2018-04-20T08:27:41.746Z,43.00
2018-04-20T08:31:44.384Z,39.20
2018-04-20T08:35:46.895Z,38.20
2018-04-20T08:39:49.660Z,39.80
2018-04-20T08:43:52.177Z,41.40
2018-04-20T08:47:54.709Z,39.80
2018-04-20T08:51:57.224Z,39.40
2018-04-20T08:56:00.147Z,40.20
2018-04-20T09:00:02.662Z,39.00
2018-04-20T09:04:05.223Z,38.70
2018-04-20T09:08:07.743Z,38.60
2018-04-20T09:12:10.283Z,40.20
2018-04-20T09:16:13.564Z,38.40
2018-04-20T09:20:16.100Z,38.20
2018-04-20T09:24:18.611Z,38.30
2018-04-20T09:28:21.438Z,38.70
2018-04-20T09:32:24.719Z,39.50
2018-04-20T09:36:27.355Z,39.50
2018-04-20T09:40:30.632Z,39.30
2018-04-20T09:44:33.176Z,39.20
2018-04-20T09:48:37.691Z,40.10
2018-04-20T09:52:41.251Z,39.30
2018-04-20T09:56:43.779Z,38.60
2018-04-20T10:00:48.176Z,40.30
2018-04-20T10:04:50.694Z,40.30
2018-04-20T10:08:53.330Z,38.50
2018-04-20T10:12:55.876Z,39.60
2018-04-20T10:16:58.406Z,39.80
2018-04-20T10:21:00.918Z,36.90
2018-04-20T10:25:03.566Z,39.50
2018-04-20T10:29:06.847Z,38.10
2018-04-20T10:33:09.477Z,38.00
2018-04-20T10:37:11.995Z,39.00
2018-04-20T10:41:15.302Z,40.80
2018-04-20T10:45:17.810Z,40.60
2018-04-20T10:49:21.327Z,41.30
2018-04-20T10:53:23.835Z,41.60
2018-04-20T10:57:26.371Z,43.60
2018-04-20T11:01:29.744Z,44.10
2018-04-20T11:05:32.377Z,44.00
2018-04-20T11:09:35.886Z,43.10
2018-04-20T11:13:38.438Z,41.50
2018-04-20T11:17:40.996Z,43.60
2018-04-20T11:21:46.543Z,39.70
2018-04-20T11:25:49.055Z,41.10
2018-04-20T11:29:51.691Z,41.10
2018-04-20T11:33:54.205Z,42.40
2018-04-20T11:37:57.020Z,42.20
2018-04-20T11:41:59.542Z,42.80
2018-04-20T11:46:02.087Z,44.20
2018-04-20T11:50:04.603Z,43.90
2018-04-20T11:54:07.448Z,41.40
2018-04-20T11:58:09.958Z,41.60
2018-04-20T12:02:12.531Z,39.60
2018-04-20T12:06:15.044Z,41.50
2018-04-20T12:10:17.869Z,41.50
2018-04-20T12:14:20.396Z,42.00
2018-04-20T12:18:22.970Z,42.40
2018-04-20T12:22:25.483Z,43.50
2018-04-20T12:26:28.035Z,42.60
2018-04-20T12:30:32.547Z,42.50
2018-04-20T12:34:35.107Z,44.80
2018-04-20T12:38:37.636Z,45.30
2018-04-20T12:42:43.745Z,43.30
2018-04-20T12:46:46.282Z,44.30
2018-04-20T12:50:49.643Z,44.70
2018-04-20T12:54:52.186Z,44.60
2018-04-20T12:58:54.765Z,44.70
2018-04-20T13:02:57.307Z,45.00
2018-04-20T13:07:01.027Z,43.40
2018-04-20T13:11:05.571Z,43.30
2018-04-20T13:15:08.145Z,42.80
2018-04-20T13:19:10.674Z,40.80
2018-04-20T13:23:13.229Z,44.90
2018-04-20T13:27:16.531Z,45.10
2018-04-20T13:31:19.157Z,45.10
2018-04-20T13:35:21.648Z,46.50
2018-04-20T13:39:24.213Z,47.30
2018-04-20T13:43:26.838Z,45.70
2018-04-20T13:47:31.344Z,46.80
2018-04-20T13:51:33.949Z,46.30
2018-04-20T13:55:40.449Z,45.30
2018-04-20T13:59:49.857Z,44.90
2018-04-20T14:03:52.498Z,44.90
2018-04-20T14:07:55.059Z,44.40
2018-04-20T14:11:57.626Z,43.60
2018-04-20T14:16:00.921Z,44.10
2018-04-20T14:20:03.500Z,44.10
2018-04-20T14:24:06.052Z,40.30
2018-04-20T14:28:09.379Z,43.70
2018-04-20T14:32:12.692Z,42.60
2018-04-20T14:36:15.679Z,42.50
2018-04-20T14:40:18.194Z,44.50
2018-04-20T14:44:22.066Z,43.40
2018-04-20T14:48:25.450Z,44.40
2018-04-20T14:52:32.702Z,44.40
2018-04-20T14:56:39.887Z,47.20
2018-04-20T15:00:42.540Z,47.20
2018-04-20T15:04:47.174Z,47.10
2018-04-20T15:08:50.484Z,50.80
2018-04-20T15:12:54.995Z,50.70
2018-04-20T15:16:58.606Z,47.90
2018-04-20T15:21:01.342Z,47.20
2018-04-20T15:25:04.886Z,48.90
2018-04-20T15:29:07.404Z,47.50
2018-04-20T15:33:10.048Z,48.20
2018-04-20T15:37:13.510Z,46.10
2018-04-20T15:41:16.148Z,46.20
2018-04-20T15:45:18.663Z,48.10
2018-04-20T15:49:23.250Z,46.10
2018-04-20T15:53:25.836Z,46.50
2018-04-20T15:57:31.090Z,44.80
2018-04-20T16:01:33.608Z,44.80
2018-04-20T16:05:36.943Z,44.90
2018-04-20T16:09:40.235Z,45.90
2018-04-20T16:13:42.785Z,45.80
2018-04-20T16:17:46.237Z,46.20
2018-04-20T16:21:49.464Z,43.70
2018-04-20T16:25:51.975Z,43.90
2018-04-20T16:29:54.537Z,42.40
2018-04-20T16:33:57.093Z,46.30
2018-04-20T16:37:59.740Z,45.00
2018-04-20T16:42:02.255Z,41.90
2018-04-20T16:46:04.824Z,45.40
2018-04-20T16:50:07.339Z,46.70
2018-04-20T16:54:10.048Z,45.40
2018-04-20T16:58:12.558Z,45.30
2018-04-20T17:02:15.975Z,46.70
2018-04-20T17:06:18.491Z,46.70
2018-04-20T17:10:23.734Z,47.90
2018-04-20T17:14:26.303Z,47.90
2018-04-20T17:18:28.843Z,52.80
2018-04-20T17:22:31.355Z,52.30
2018-04-20T17:26:33.898Z,51.60
2018-04-20T17:30:36.419Z,54.00
2018-04-20T17:34:53.654Z,54.30
2018-04-20T17:38:56.208Z,53.70
2018-04-20T17:42:58.861Z,58.00
2018-04-20T17:47:02.315Z,58.50
2018-04-20T17:51:04.894Z,60.60
2018-04-20T17:55:08.174Z,64.10
2018-04-20T17:59:10.711Z,64.00
2018-04-20T18:03:14.003Z,66.50
2018-04-20T18:07:16.626Z,66.50
2018-04-20T18:11:19.149Z,68.10
2018-04-20T18:15:22.545Z,73.50
2018-04-20T18:19:25.067Z,73.50
2018-04-20T18:23:27.937Z,75.30
2018-04-20T18:27:30.484Z,76.00
2018-04-20T18:31:33.251Z,77.80
2018-04-20T18:35:35.775Z,79.70
2018-04-20T18:39:41.465Z,80.60
2018-04-20T18:43:43.977Z,82.90
2018-04-20T18:47:57.563Z,83.90
2018-04-20T18:52:01.406Z,85.90
2018-04-20T18:56:04.994Z,85.80
2018-04-20T19:00:20.819Z,85.00
2018-04-20T19:04:23.382Z,84.50
2018-04-20T19:08:25.942Z,85.20
2018-04-20T19:12:28.514Z,84.70
2018-04-20T19:16:32.066Z,85.20
2018-04-20T19:20:34.651Z,84.90
2018-04-20T19:24:49.720Z,85.60
2018-04-20T19:28:53.198Z,86.10
2018-04-20T19:32:55.742Z,86.80
2018-04-20T19:36:58.311Z,87.30
2018-04-20T19:41:02.595Z,87.70
2018-04-20T19:45:09.237Z,87.80
2018-04-20T19:49:34.939Z,87.80
2018-04-20T19:53:38.607Z,88.30
2018-04-20T19:57:41.173Z,88.30
2018-04-20T20:01:46.440Z,89.10
2018-04-20T20:05:51.652Z,89.90
2018-04-20T20:10:00.949Z,89.90
2018-04-20T20:14:05.431Z,89.30
2018-04-20T20:18:08.863Z,90.10
2018-04-20T20:22:12.095Z,90.10
2018-04-20T20:26:16.688Z,89.60
2018-04-20T20:30:19.210Z,90.50
2018-04-20T20:34:21.779Z,90.80
2018-04-20T20:38:24.299Z,91.00
2018-04-20T20:42:27.253Z,91.10
2018-04-20T20:46:30.540Z,91.10
2018-04-20T20:50:33.150Z,91.10
2018-04-20T20:54:35.666Z,91.00
2018-04-20T20:58:39.314Z,91.60
2018-04-20T21:02:42.612Z,91.90
2018-04-20T21:06:45.197Z,91.90
2018-04-20T21:10:47.712Z,91.50
2018-04-20T21:14:50.268Z,91.40
2018-04-20T21:18:53.554Z,92.20
2018-04-20T21:23:01.401Z,92.20
2018-04-20T21:27:04.017Z,92.50
2018-04-20T21:31:08.510Z,92.50
2018-04-20T21:35:17.751Z,92.50
2018-04-20T21:39:22.110Z,92.90
2018-04-20T21:43:24.699Z,92.90
2018-04-20T21:47:31.677Z,93.10
2018-04-20T21:51:34.253Z,92.20
2018-04-20T21:55:36.839Z,92.80
2018-04-20T21:59:40.358Z,93.00
2018-04-20T22:03:43.684Z,92.80
2018-04-20T22:07:46.991Z,93.40
2018-04-20T22:11:50.531Z,93.40
2018-04-20T22:15:57.687Z,93.60
2018-04-20T22:20:00.247Z,93.60
2018-04-20T22:24:03.532Z,93.20
2018-04-20T22:28:06.092Z,93.20
2018-04-20T22:32:10.574Z,93.90
2018-04-20T22:36:14.142Z,94.20
2018-04-20T22:40:17.627Z,94.10
2018-04-20T22:44:24.884Z,94.30
2018-04-20T22:48:33.779Z,94.50
2018-04-20T22:52:36.333Z,94.20
2018-04-20T22:56:38.855Z,94.10
2018-04-20T23:00:41.414Z,94.40
2018-04-20T23:04:45.870Z,94.20
2018-04-20T23:08:48.423Z,93.90
2018-04-20T23:13:05.671Z,93.90
2018-04-20T23:17:08.218Z,93.90
2018-04-20T23:21:10.760Z,93.90
2018-04-20T23:25:15.223Z,94.30
2018-04-20T23:29:17.750Z,93.90
2018-04-20T23:33:21.061Z,93.60
2018-04-20T23:37:23.567Z,93.60
2018-04-20T23:41:39.526Z,94.30
2018-04-20T23:45:42.046Z,94.80
2018-04-20T23:49:44.890Z,94.90
2018-04-20T23:53:47.502Z,95.40
2018-04-20T23:57:52.055Z,95.40
